Terminal Aerodrome Forecast
Issued by NWS

Home | Current Version | Previous Version | Graphics & Text | Print | Product List | Glossary On
Versions: 1 2 3 4 5 6 7 8 9 10 11 12 13 14 15 16 17 18 19 20 21
000
FTUS43 KGRB 231731
TAFCWA
TAF
KCWA 231731Z 2318/2418 33009G16KT P6SM SCT040 BKN100
     FM240100 02005KT P6SM SCT080
     FM240900 02005KT 6SM BR SCT035
     FM241000 03005KT 5SM BR SCT026
     FM241200 03005KT P6SM SCT017
     FM241400 06005KT P6SM SCT100=

USA.gov is the U.S. government's official web portal to all federal, state and local government web resources and services.